Time;durP1;ratioP1;P1;durP2;ratioP2;P2;SDS_P1;SDS_P2;PMS_P1;PMS_P2;Temp;Humidity;BMP_temperature;BMP_pressure;BME280_temperature;BME280_humidity;BME280_pressure;Samples;Min_cycle;Max_cycle;Signal;HPM_P1;HPM_P2
2024/02/04 00:00:05;;;;;;;7.03;3.20;;;;;;;;;;4941916;29;20008;-83
2024/02/04 00:02:54;;;;;;;5.50;2.95;;;;;;;;;;4972028;29;20036;-83
2024/02/04 00:05:21;;;;;;;7.35;3.35;;;;;;;;;;4943756;28;20070;-83
2024/02/04 00:07:47;;;;;;;6.97;4.18;;;;;;;;;;4959812;29;20054;-82
2024/02/04 00:10:15;;;;;;;6.38;4.07;;;;;;;;;;4943971;29;20039;-83
2024/02/04 00:12:41;;;;;;;6.95;4.20;;;;;;;;;;4940114;29;20051;-84
2024/02/04 00:15:08;;;;;;;10.82;4.20;;;;;;;;;;4941713;29;20039;-82
2024/02/04 00:17:36;;;;;;;6.68;4.22;;;;;;;;;;4941915;29;20035;-83
2024/02/04 00:20:05;;;;;;;7.80;4.25;;;;;;;;;;4956737;29;20046;-82
2024/02/04 00:22:34;;;;;;;9.52;4.57;;;;;;;;;;4940976;29;20051;-83
2024/02/04 00:25:04;;;;;;;;;;;;;;;;;;4971020;28;20114;-83
2024/02/04 00:27:31;;;;;;;7.80;4.65;;;;;;;;;;4937113;29;19970;-82
2024/02/04 00:29:58;;;;;;;9.57;5.47;;;;;;;;;;4936407;29;20151;-82
2024/02/04 00:32:27;;;;;;;10.80;5.38;;;;;;;;;;4952046;29;20567;-82
2024/02/04 00:34:53;;;;;;;;;;;;;;;;;;4954847;29;20079;-83
2024/02/04 00:37:19;;;;;;;8.82;5.45;;;;;;;;;;4938881;29;19945;-83
2024/02/04 00:39:47;;;;;;;9.40;6.07;;;;;;;;;;4968153;29;20043;-82
2024/02/04 00:42:21;;;;;;;8.93;5.65;;;;;;;;;;4969456;28;20035;-82
2024/02/04 00:44:47;;;;;;;9.60;5.90;;;;;;;;;;4967905;28;20037;-82
2024/02/04 00:47:15;;;;;;;9.90;5.80;;;;;;;;;;4934350;29;20039;-84
2024/02/04 00:49:42;;;;;;;;;;;;;;;;;;4968541;29;20419;-83
2024/02/04 00:52:08;;;;;;;8.90;4.70;;;;;;;;;;4937963;29;19914;-84
2024/02/04 00:54:34;;;;;;;12.13;5.63;;;;;;;;;;4941062;29;20043;-81
2024/02/04 00:57:07;;;;;;;12.45;5.38;;;;;;;;;;4973153;29;20035;-84
2024/02/04 00:59:34;;;;;;;7.72;4.15;;;;;;;;;;4936498;29;20031;-81
2024/02/04 01:02:02;;;;;;;8.20;4.50;;;;;;;;;;4986595;28;20066;-81
2024/02/04 01:04:30;;;;;;;6.13;4.13;;;;;;;;;;4954998;29;20042;-82
2024/02/04 01:06:56;;;;;;;6.47;3.92;;;;;;;;;;4954507;29;20039;-82
2024/02/04 01:09:22;;;;;;;6.05;3.90;;;;;;;;;;4969117;29;20626;-82
2024/02/04 01:11:48;;;;;;;9.23;4.60;;;;;;;;;;4953149;29;20046;-82
2024/02/04 01:14:14;;;;;;;9.32;4.20;;;;;;;;;;4969026;28;20034;-83
2024/02/04 01:16:41;;;;;;;8.90;4.40;;;;;;;;;;4970708;29;20042;-82
2024/02/04 01:19:09;;;;;;;8.40;3.97;;;;;;;;;;4958023;29;20055;-83
2024/02/04 01:21:35;;;;;;;9.25;4.65;;;;;;;;;;4974655;29;20035;-82
2024/02/04 01:24:01;;;;;;;7.63;3.78;;;;;;;;;;4960049;29;20059;-83
2024/02/04 01:26:27;;;;;;;8.77;4.13;;;;;;;;;;4976104;29;20063;-82
2024/02/04 01:28:53;;;;;;;9.35;4.05;;;;;;;;;;4976251;29;20110;-83
2024/02/04 01:31:19;;;;;;;8.07;4.38;;;;;;;;;;4976890;28;20059;-81
2024/02/04 01:33:46;;;;;;;12.63;4.70;;;;;;;;;;4991829;28;20035;-84
2024/02/04 01:36:12;;;;;;;8.32;4.13;;;;;;;;;;4975154;29;20050;-82
2024/02/04 01:38:37;;;;;;;6.93;3.70;;;;;;;;;;4942745;29;20037;-81
2024/02/04 01:41:05;;;;;;;6.93;3.72;;;;;;;;;;4952475;29;20031;-83
2024/02/04 01:43:31;;;;;;;8.60;4.00;;;;;;;;;;4958774;28;20042;-83
2024/02/04 01:45:57;;;;;;;6.18;3.78;;;;;;;;;;4990413;28;20042;-83
2024/02/04 01:48:25;;;;;;;6.05;2.97;;;;;;;;;;4990119;28;20103;-82
2024/02/04 01:50:56;;;;;;;7.10;3.50;;;;;;;;;;4943409;28;20051;-82
2024/02/04 01:53:24;;;;;;;7.43;3.58;;;;;;;;;;4976123;28;20082;-81
2024/02/04 01:55:51;;;;;;;6.75;3.58;;;;;;;;;;4943009;29;20035;-82
2024/02/04 01:58:17;;;;;;;5.60;3.42;;;;;;;;;;4976207;29;20031;-82
2024/02/04 02:00:43;;;;;;;7.32;4.07;;;;;;;;;;4958171;29;20043;-82
2024/02/04 02:03:11;;;;;;;8.98;4.53;;;;;;;;;;4941965;28;20039;-82
2024/02/04 02:05:40;;;;;;;11.20;5.63;;;;;;;;;;4959626;29;20035;-81
2024/02/04 02:08:11;;;;;;;13.25;5.70;;;;;;;;;;4975269;29;20099;-81
2024/02/04 02:10:42;;;;;;;11.05;6.03;;;;;;;;;;4960254;29;20034;-83
2024/02/04 02:13:22;;;;;;;13.55;6.65;;;;;;;;;;4978104;28;20042;-83
2024/02/04 02:15:51;;;;;;;12.57;6.18;;;;;;;;;;4964126;29;20090;-83
2024/02/04 02:18:21;;;;;;;13.65;6.07;;;;;;;;;;4964892;29;20034;-82
2024/02/04 02:20:59;;;;;;;13.23;6.57;;;;;;;;;;4965740;28;20027;-81
2024/02/04 02:23:37;;;;;;;16.63;6.90;;;;;;;;;;4978984;28;20438;-81
2024/02/04 02:26:05;;;;;;;14.68;6.43;;;;;;;;;;4961460;29;20015;-83
2024/02/04 02:28:35;;;;;;;15.93;7.13;;;;;;;;;;4963715;28;20035;-81
2024/02/04 02:33:54;;;;;;;;;;;;;;;;;;5753123;23;20067;-83
2024/02/04 02:36:26;;;;;;;20.67;6.97;;;;;;;;;;4999767;28;19898;-82
2024/02/04 02:39:11;;;;;;;16.95;7.47;;;;;;;;;;5000694;28;20025;-82
2024/02/04 02:41:57;;;;;;;13.43;6.90;;;;;;;;;;5000760;28;20022;-82
2024/02/04 02:44:26;;;;;;;15.80;8.10;;;;;;;;;;4968965;28;20026;-82
2024/02/04 02:47:06;;;;;;;13.27;6.53;;;;;;;;;;4984137;28;20019;-82
2024/02/04 02:50:07;;;;;;;12.50;6.80;;;;;;;;;;5000681;28;20045;-82
2024/02/04 02:52:49;;;;;;;11.32;5.45;;;;;;;;;;4972506;28;20062;-81
2024/02/04 02:55:26;;;;;;;12.10;5.70;;;;;;;;;;4985329;28;20047;-82
2024/02/04 02:58:07;;;;;;;10.82;5.13;;;;;;;;;;5001155;28;20030;-80
2024/02/04 03:00:43;;;;;;;11.32;5.50;;;;;;;;;;4970901;28;20042;-81
2024/02/04 03:03:12;;;;;;;8.80;4.57;;;;;;;;;;4972276;28;20062;-81
2024/02/04 03:05:47;;;;;;;8.85;4.70;;;;;;;;;;4947313;28;20035;-81
2024/02/04 03:08:18;;;;;;;10.48;4.57;;;;;;;;;;4933820;28;20043;-81
2024/02/04 03:10:47;;;;;;;14.45;4.88;;;;;;;;;;4964412;28;20035;-82
2024/02/04 03:13:13;;;;;;;;;;;;;;;;;;4963815;28;20039;-82
2024/02/04 03:15:48;;;;;;;8.85;3.90;;;;;;;;;;4965537;28;20005;-82
2024/02/04 03:18:17;;;;;;;10.38;5.00;;;;;;;;;;4949061;28;20039;-82
2024/02/04 03:20:45;;;;;;;7.95;4.30;;;;;;;;;;4949541;28;20038;-82
2024/02/04 03:23:24;;;;;;;9.25;4.47;;;;;;;;;;4951271;28;20043;-82
2024/02/04 03:25:59;;;;;;;12.63;4.18;;;;;;;;;;4965986;28;20042;-82
2024/02/04 03:28:30;;;;;;;8.13;3.97;;;;;;;;;;4949914;28;20042;-81
2024/02/04 03:31:07;;;;;;;10.25;3.97;;;;;;;;;;4964935;28;20030;-83
2024/02/04 03:33:50;;;;;;;9.07;3.88;;;;;;;;;;4965234;28;20062;-82
2024/02/04 03:36:38;;;;;;;7.80;3.25;;;;;;;;;;4950409;28;20090;-82
2024/02/04 03:39:16;;;;;;;6.72;3.40;;;;;;;;;;4967334;28;20042;-83
2024/02/04 03:41:47;;;;;;;7.20;3.47;;;;;;;;;;4948155;28;20035;-82
2024/02/04 03:44:16;;;;;;;7.03;3.45;;;;;;;;;;4963589;28;20054;-82
2024/02/04 03:46:45;;;;;;;;;;;;;;;;;;4946076;28;20053;-81
2024/02/04 03:49:20;;;;;;;6.30;3.30;;;;;;;;;;4963777;28;19941;-82
2024/02/04 03:51:48;;;;;;;8.25;3.60;;;;;;;;;;4946582;28;20030;-82
2024/02/04 03:54:19;;;;;;;6.45;3.17;;;;;;;;;;4946532;28;20031;-82
2024/02/04 03:56:46;;;;;;;6.57;2.97;;;;;;;;;;4979608;28;20038;-81
2024/02/04 03:59:17;;;;;;;8.88;3.38;;;;;;;;;;4964379;28;20030;-82
2024/02/04 04:01:48;;;;;;;8.90;3.20;;;;;;;;;;4963917;28;20030;-82
2024/02/04 04:04:15;;;;;;;7.63;2.90;;;;;;;;;;4989784;28;20035;-82
2024/02/04 04:06:46;;;;;;;8.25;3.67;;;;;;;;;;4959145;28;20058;-81
2024/02/04 04:09:18;;;;;;;6.93;3.47;;;;;;;;;;4971387;28;20046;-81
2024/02/04 04:11:58;;;;;;;5.45;2.78;;;;;;;;;;4973895;28;20048;-82
2024/02/04 04:14:29;;;;;;;6.35;3.15;;;;;;;;;;4990211;28;20035;-82
2024/02/04 04:17:40;;;;;;;7.85;2.85;;;;;;;;;;4979903;28;20065;-82
2024/02/04 04:20:29;;;;;;;6.22;3.22;;;;;;;;;;4964276;28;20034;-82
2024/02/04 04:22:58;;;;;;;7.55;3.25;;;;;;;;;;4961423;28;20039;-81
2024/02/04 04:25:46;;;;;;;5.55;2.85;;;;;;;;;;4977915;28;20482;-82
2024/02/04 04:28:17;;;;;;;6.03;3.15;;;;;;;;;;4960355;28;20030;-82
2024/02/04 04:30:57;;;;;;;6.07;3.13;;;;;;;;;;4975891;28;20027;-82
2024/02/04 04:33:26;;;;;;;7.15;3.47;;;;;;;;;;4976845;28;20050;-82
2024/02/04 04:35:56;;;;;;;6.50;3.30;;;;;;;;;;4961072;28;20116;-81
2024/02/04 04:38:38;;;;;;;8.82;3.65;;;;;;;;;;4947800;28;20030;-81
2024/02/04 04:41:06;;;;;;;7.32;3.88;;;;;;;;;;4945002;28;20047;-82
2024/02/04 04:43:35;;;;;;;9.93;4.47;;;;;;;;;;4945304;28;20383;-82
2024/02/04 04:46:06;;;;;;;8.13;3.83;;;;;;;;;;4929473;28;20035;-81
2024/02/04 04:48:39;;;;;;;;;;;;;;;;;;4944782;28;20065;-83
2024/02/04 04:51:08;;;;;;;7.43;3.85;;;;;;;;;;4944731;28;20077;-82
2024/02/04 04:53:36;;;;;;;11.32;4.45;;;;;;;;;;4977314;28;20034;-81
2024/02/04 04:56:09;;;;;;;7.50;4.18;;;;;;;;;;4982400;28;20033;-82
2024/02/04 04:58:36;;;;;;;8.75;4.22;;;;;;;;;;4968054;28;20031;-82
2024/02/04 05:01:07;;;;;;;10.55;4.53;;;;;;;;;;4964122;28;20038;-82
2024/02/04 05:03:48;;;;;;;8.68;4.65;;;;;;;;;;4963925;28;20034;-82
2024/02/04 05:06:19;;;;;;;6.68;3.65;;;;;;;;;;4979495;28;20030;-82
2024/02/04 05:08:49;;;;;;;10.13;4.30;;;;;;;;;;4965899;28;20034;-82
2024/02/04 05:11:17;;;;;;;7.20;4.30;;;;;;;;;;4981131;28;20034;-81
2024/02/04 05:13:46;;;;;;;8.52;3.88;;;;;;;;;;4965361;28;20034;-81
2024/02/04 05:16:18;;;;;;;;;;;;;;;;;;4966100;28;20421;-81
2024/02/04 05:18:46;;;;;;;6.80;2.90;;;;;;;;;;4982809;28;19916;-81
2024/02/04 05:21:14;;;;;;;6.68;3.17;;;;;;;;;;4984037;28;20130;-83
2024/02/04 05:23:50;;;;;;;;;;;;;;;;;;4970112;28;20034;-82
2024/02/04 05:26:39;;;;;;;9.23;3.72;;;;;;;;;;4981552;28;19914;-82
2024/02/04 05:29:07;;;;;;;6.97;3.35;;;;;;;;;;4999109;28;20034;-82
2024/02/04 05:31:46;;;;;;;7.68;3.60;;;;;;;;;;4983827;28;20034;-82
2024/02/04 05:34:19;;;;;;;5.95;3.40;;;;;;;;;;5017305;28;20038;-82
2024/02/04 05:36:53;;;;;;;10.27;4.18;;;;;;;;;;4979103;28;20034;-82
2024/02/04 05:39:37;;;;;;;6.55;4.05;;;;;;;;;;4994013;28;20035;-82
2024/02/04 05:42:10;;;;;;;8.40;4.18;;;;;;;;;;4981098;28;20042;-82
2024/02/04 05:44:47;;;;;;;8.68;4.55;;;;;;;;;;4980631;28;20037;-83
2024/02/04 05:47:18;;;;;;;10.20;4.97;;;;;;;;;;4964981;28;20034;-83
2024/02/04 05:49:47;;;;;;;10.13;4.90;;;;;;;;;;4982678;28;20034;-82
2024/02/04 05:52:17;;;;;;;9.70;4.82;;;;;;;;;;4977701;28;20038;-82
2024/02/04 05:54:48;;;;;;;11.75;4.82;;;;;;;;;;4982029;28;20034;-83
2024/02/04 05:57:16;;;;;;;10.32;5.30;;;;;;;;;;4984472;28;20405;-82
2024/02/04 05:59:48;;;;;;;9.38;4.45;;;;;;;;;;4984143;28;20121;-83
2024/02/04 06:02:38;;;;;;;12.27;5.03;;;;;;;;;;4996241;28;20031;-83
2024/02/04 06:05:04;;;;;;;;;;;;;;;;;;5000108;28;20030;-82
2024/02/04 06:07:45;;;;;;;9.80;4.75;;;;;;;;;;4985560;28;19913;-83
2024/02/04 06:10:40;;;;;;;10.43;4.38;;;;;;;;;;4987854;28;20038;-82
2024/02/04 06:13:16;;;;;;;9.63;5.13;;;;;;;;;;4968177;28;20057;-82
2024/02/04 06:26:09;;;;;;;8.73;4.40;;;;;;;;;;5302604;23;20054;-82
2024/02/04 06:28:39;;;;;;;6.53;3.78;;;;;;;;;;4998392;28;20019;-82
2024/02/04 06:31:10;;;;;;;5.43;3.28;;;;;;;;;;4956518;28;20035;-82
2024/02/04 06:33:36;;;;;;;6.40;3.20;;;;;;;;;;4969603;28;20039;-82
2024/02/04 06:37:25;;;;;;;;;;;;;;;;;;;;;
2024/02/04 06:47:20;;;;;;;2.90;1.80;;;;;;;;;;5940462;23;20042;-83
2024/02/04 06:49:56;;;;;;;2.28;1.45;;;;;;;;;;4995878;28;20045;-83
2024/02/04 06:52:43;;;;;;;2.78;1.30;;;;;;;;;;4981523;28;20030;-83
2024/02/04 06:55:17;;;;;;;2.60;1.20;;;;;;;;;;4996599;28;20027;-83
2024/02/04 06:57:49;;;;;;;2.47;1.00;;;;;;;;;;4965552;28;20062;-83
2024/02/04 07:00:30;;;;;;;1.90;1.00;;;;;;;;;;4967122;28;20406;-82
2024/02/04 07:02:56;;;;;;;2.33;0.95;;;;;;;;;;4966172;28;20169;-83
2024/02/04 07:05:31;;;;;;;2.25;1.10;;;;;;;;;;4981548;28;20062;-82
2024/02/04 07:08:12;;;;;;;1.80;1.00;;;;;;;;;;4978539;28;20031;-82
2024/02/04 07:10:40;;;;;;;1.83;0.90;;;;;;;;;;4964465;28;20058;-83
2024/02/04 07:13:41;;;;;;;1.48;0.85;;;;;;;;;;4964220;28;20030;-81
2024/02/04 07:16:17;;;;;;;1.50;0.80;;;;;;;;;;4965007;28;20136;-82
2024/02/04 07:18:48;;;;;;;3.85;0.82;;;;;;;;;;4962774;28;20027;-82
2024/02/04 07:21:44;;;;;;;2.97;1.10;;;;;;;;;;4978954;28;20578;-82
2024/02/04 07:24:26;;;;;;;0.95;0.57;;;;;;;;;;4997403;28;20042;-82
2024/02/04 07:26:57;;;;;;;3.53;1.05;;;;;;;;;;4998931;28;20030;-82
2024/02/04 07:29:55;;;;;;;3.17;0.98;;;;;;;;;;4979808;28;20042;-83
2024/02/04 07:36:16;;;;;;;2.28;1.15;;;;;;;;;;5259172;23;20062;-83
2024/02/04 07:38:51;;;;;;;5.07;1.15;;;;;;;;;;4960065;28;20054;-83
2024/02/04 07:41:18;;;;;;;3.42;1.27;;;;;;;;;;4946517;28;20502;-83
2024/02/04 07:43:57;;;;;;;1.90;0.77;;;;;;;;;;4958109;28;20398;-83
2024/02/04 07:46:28;;;;;;;1.60;0.90;;;;;;;;;;4942320;29;20035;-83
2024/02/04 07:48:57;;;;;;;1.50;0.82;;;;;;;;;;4902887;29;20056;-80
2024/02/04 07:51:29;;;;;;;1.88;1.00;;;;;;;;;;4953890;29;20036;-82
2024/02/04 07:54:11;;;;;;;;;;;;;;;;;;4937224;29;20043;-82
2024/02/04 07:56:58;;;;;;;4.75;0.80;;;;;;;;;;4946031;29;20114;-82
2024/02/04 07:59:26;;;;;;;1.30;0.70;;;;;;;;;;4953875;29;20036;-82
2024/02/04 08:02:06;;;;;;;2.85;1.08;;;;;;;;;;4966807;29;20059;-82
2024/02/04 08:05:09;;;;;;;1.55;0.80;;;;;;;;;;4940138;29;20039;-81
2024/02/04 08:07:48;;;;;;;1.05;0.50;;;;;;;;;;4922797;29;20050;-82
2024/02/04 08:10:28;;;;;;;1.27;0.50;;;;;;;;;;4921021;29;20043;-83
2024/02/04 08:13:15;;;;;;;0.90;0.60;;;;;;;;;;4950084;29;20035;-82
2024/02/04 08:15:58;;;;;;;1.30;0.70;;;;;;;;;;4942479;28;20042;-83
2024/02/04 08:18:28;;;;;;;0.80;0.50;;;;;;;;;;4944861;28;20031;-82
2024/02/04 08:20:57;;;;;;;0.60;0.40;;;;;;;;;;4945258;28;20020;-82
2024/02/04 08:23:37;;;;;;;2.65;0.50;;;;;;;;;;4960410;28;20106;-82
2024/02/04 08:29:29;;;;;;;1.50;0.60;;;;;;;;;;4941197;29;20047;-82
2024/02/04 08:32:05;;;;;;;1.23;0.57;;;;;;;;;;4938346;29;20035;-82
2024/02/04 08:34:57;;;;;;;1.17;0.60;;;;;;;;;;4923057;29;20036;-82
2024/02/04 08:37:27;;;;;;;2.17;0.82;;;;;;;;;;4920966;29;20078;-82
2024/02/04 08:40:19;;;;;;;0.93;0.50;;;;;;;;;;4923144;29;20160;-83
2024/02/04 08:42:57;;;;;;;1.08;0.60;;;;;;;;;;4913195;29;20064;-82
2024/02/04 08:45:53;;;;;;;1.60;0.80;;;;;;;;;;4919181;29;20059;-82
2024/02/04 08:48:47;;;;;;;2.80;0.80;;;;;;;;;;4936766;29;20035;-83
2024/02/04 08:51:18;;;;;;;1.63;0.80;;;;;;;;;;4931267;29;20040;-82
2024/02/04 08:54:07;;;;;;;1.85;0.88;;;;;;;;;;4931372;29;20035;-83
2024/02/04 08:57:07;;;;;;;3.38;0.80;;;;;;;;;;4963260;29;20047;-83
2024/02/04 08:59:48;;;;;;;2.30;0.80;;;;;;;;;;4940501;29;20035;-82
2024/02/04 09:02:26;;;;;;;1.65;0.88;;;;;;;;;;4939479;29;20051;-82
2024/02/04 09:04:57;;;;;;;2.33;0.82;;;;;;;;;;4907224;29;20141;-83
2024/02/04 09:07:47;;;;;;;1.98;0.82;;;;;;;;;;4913396;29;20134;-83
2024/02/04 09:10:17;;;;;;;3.05;1.00;;;;;;;;;;4958344;29;20042;-83
2024/02/04 09:12:47;;;;;;;1.30;0.68;;;;;;;;;;4940558;29;20058;-83
2024/02/04 09:15:16;;;;;;;4.72;1.00;;;;;;;;;;4925644;29;20050;-82
2024/02/04 09:18:09;;;;;;;1.70;0.80;;;;;;;;;;4924894;29;20066;-83
2024/02/04 09:20:55;;;;;;;1.67;0.90;;;;;;;;;;4913397;29;20070;-83
2024/02/04 09:23:28;;;;;;;2.20;1.08;;;;;;;;;;4926718;29;20066;-82
2024/02/04 09:25:57;;;;;;;1.65;0.90;;;;;;;;;;4927206;29;20046;-84
2024/02/04 09:28:37;;;;;;;1.55;0.70;;;;;;;;;;4932487;29;20098;-83
2024/02/04 09:34:46;;;;;;;2.65;0.70;;;;;;;;;;4948682;29;20055;-83
2024/02/04 09:37:17;;;;;;;2.17;0.90;;;;;;;;;;4964956;28;20098;-83
2024/02/04 09:39:43;;;;;;;1.73;1.02;;;;;;;;;;4971947;28;20102;-83
2024/02/04 09:42:20;;;;;;;2.08;1.10;;;;;;;;;;4955039;29;20066;-83
2024/02/04 09:44:54;;;;;;;3.78;1.40;;;;;;;;;;4952725;29;20042;-83
2024/02/04 09:47:29;;;;;;;2.83;1.42;;;;;;;;;;4930442;29;20038;-83
2024/02/04 09:49:58;;;;;;;4.18;1.80;;;;;;;;;;4974722;29;20046;-83
2024/02/04 09:52:47;;;;;;;4.38;2.20;;;;;;;;;;4958737;29;20047;-84
2024/02/04 09:55:50;;;;;;;6.00;2.47;;;;;;;;;;4948956;29;20039;-83
2024/02/04 09:58:26;;;;;;;4.85;2.70;;;;;;;;;;4963039;28;20030;-83
2024/02/04 10:01:18;;;;;;;6.07;3.65;;;;;;;;;;4978790;28;20026;-83
2024/02/04 10:03:47;;;;;;;10.30;3.85;;;;;;;;;;4950153;29;20027;-83
2024/02/04 10:06:18;;;;;;;;;;;;;;;;;;4961861;29;20028;-83
2024/02/04 10:09:13;;;;;;;8.43;3.85;;;;;;;;;;4974884;29;19974;-83
2024/02/04 10:18:32;;;;;;;;;;;;;;;;;;6111684;23;20013;-82
2024/02/04 10:21:28;;;;;;;4.45;2.13;;;;;;;;;;4944919;29;19914;-83
2024/02/04 10:23:56;;;;;;;;;;;;;;;;;;4929544;29;20052;-83
2024/02/04 10:26:31;;;;;;;5.22;2.90;;;;;;;;;;4961079;29;19922;-83
2024/02/04 10:29:07;;;;;;;4.78;2.70;;;;;;;;;;4938638;28;20044;-83
2024/02/04 10:32:18;;;;;;;4.78;2.97;;;;;;;;;;4954498;29;20036;-83
2024/02/04 10:34:57;;;;;;;4.18;2.30;;;;;;;;;;4932906;29;20517;-83
2024/02/04 10:37:42;;;;;;;4.57;2.35;;;;;;;;;;4921676;29;20039;-84
2024/02/04 10:40:46;;;;;;;4.20;2.42;;;;;;;;;;4924114;29;20028;-84
2024/02/04 10:46:06;;;;;;;3.78;1.90;;;;;;;;;;5154634;23;20046;-84
2024/02/04 10:48:41;;;;;;;3.95;1.70;;;;;;;;;;4993530;28;20070;-83
2024/02/04 10:51:18;;;;;;;3.30;1.77;;;;;;;;;;4980535;28;20034;-83
2024/02/04 11:05:50;;;;;;;6.07;2.13;;;;;;;;;;4962105;28;20132;-83
2024/02/04 11:08:28;;;;;;;3.00;1.83;;;;;;;;;;4934047;28;20047;-82
2024/02/04 11:10:59;;;;;;;5.32;2.10;;;;;;;;;;4931113;28;20023;-83
2024/02/04 11:13:25;;;;;;;;;;;;;;;;;;4949208;28;20055;-83
2024/02/04 11:16:00;;;;;;;4.47;2.08;;;;;;;;;;4950991;28;20024;-83
2024/02/04 11:21:26;;;;;;;6.32;3.20;;;;;;;;;;4945389;29;20048;-79
2024/02/04 11:24:08;;;;;;;6.55;2.80;;;;;;;;;;4932246;29;20070;-80
2024/02/04 11:26:34;;;;;;;5.88;2.58;;;;;;;;;;4970195;29;20039;-80
2024/02/04 11:29:00;;;;;;;6.47;3.15;;;;;;;;;;4939381;29;20042;-81
2024/02/04 11:31:28;;;;;;;5.75;2.78;;;;;;;;;;4956886;29;20047;-80
2024/02/04 11:33:54;;;;;;;4.68;2.38;;;;;;;;;;4936281;29;20054;-80
2024/02/04 11:36:26;;;;;;;6.50;3.22;;;;;;;;;;4933883;29;20043;-80
2024/02/04 11:38:52;;;;;;;6.47;3.15;;;;;;;;;;4930838;29;20055;-80
2024/02/04 11:41:22;;;;;;;8.38;3.13;;;;;;;;;;4930308;29;20035;-81
2024/02/04 11:43:55;;;;;;;6.68;3.30;;;;;;;;;;4944523;28;20038;-81
2024/02/04 11:46:21;;;;;;;7.97;3.13;;;;;;;;;;4930365;29;20035;-80
2024/02/04 11:48:54;;;;;;;6.57;3.55;;;;;;;;;;4947624;29;20110;-80
2024/02/04 11:51:26;;;;;;;6.82;4.13;;;;;;;;;;4948254;29;20031;-81
2024/02/04 11:53:52;;;;;;;5.55;3.17;;;;;;;;;;4948247;29;20546;-80
2024/02/04 11:56:19;;;;;;;6.95;4.07;;;;;;;;;;4947168;29;20034;-81
2024/02/04 11:58:45;;;;;;;6.40;4.35;;;;;;;;;;4961809;28;20023;-81
2024/02/04 12:01:11;;;;;;;12.38;4.70;;;;;;;;;;4931137;28;20027;-79
2024/02/04 12:03:37;;;;;;;7.68;4.75;;;;;;;;;;4934676;29;20039;-80
2024/02/04 12:06:03;;;;;;;10.90;4.60;;;;;;;;;;4950344;29;20045;-80
2024/02/04 12:08:30;;;;;;;9.27;4.78;;;;;;;;;;4934555;29;20038;-80
2024/02/04 12:10:56;;;;;;;8.20;4.28;;;;;;;;;;4933542;29;20491;-79
2024/02/04 12:13:24;;;;;;;6.93;3.85;;;;;;;;;;4962234;29;20110;-81
2024/02/04 12:15:52;;;;;;;5.93;3.58;;;;;;;;;;4961440;28;20058;-81
2024/02/04 12:18:21;;;;;;;8.60;4.28;;;;;;;;;;4928080;29;20027;-80
2024/02/04 12:20:50;;;;;;;6.47;3.60;;;;;;;;;;4942580;29;20095;-80
2024/02/04 12:23:20;;;;;;;6.72;3.63;;;;;;;;;;4945374;29;20266;-81
2024/02/04 12:25:46;;;;;;;6.05;3.15;;;;;;;;;;4942835;29;20480;-81
2024/02/04 12:28:13;;;;;;;6.85;4.22;;;;;;;;;;4927448;29;20166;-80
2024/02/04 12:30:39;;;;;;;9.77;3.70;;;;;;;;;;4925185;29;20032;-80
2024/02/04 12:33:05;;;;;;;8.77;3.53;;;;;;;;;;4924543;28;20083;-80
2024/02/04 12:35:31;;;;;;;6.47;3.42;;;;;;;;;;4944252;29;20091;-81
2024/02/04 12:37:58;;;;;;;5.68;3.17;;;;;;;;;;4961287;29;20058;-80
2024/02/04 12:40:24;;;;;;;4.82;2.75;;;;;;;;;;4944481;28;20439;-81
2024/02/04 12:43:00;;;;;;;5.03;3.30;;;;;;;;;;4942065;29;20031;-81
2024/02/04 12:45:27;;;;;;;9.20;3.25;;;;;;;;;;4927660;29;20073;-79
2024/02/04 12:47:56;;;;;;;4.28;2.67;;;;;;;;;;4943026;29;20046;-79
2024/02/04 12:50:22;;;;;;;4.32;2.42;;;;;;;;;;4942093;29;20047;-80
2024/02/04 12:52:48;;;;;;;5.53;3.20;;;;;;;;;;4927776;29;20031;-80
2024/02/04 12:55:22;;;;;;;4.88;2.85;;;;;;;;;;4929530;29;20450;-79
2024/02/04 12:57:48;;;;;;;7.28;3.10;;;;;;;;;;4927383;29;20042;-81
2024/02/04 13:00:19;;;;;;;6.68;2.80;;;;;;;;;;4940744;29;20244;-80
2024/02/04 13:02:44;;;;;;;;;;;;;;;;;;4957697;28;20038;-80
2024/02/04 13:05:20;;;;;;;3.85;2.10;;;;;;;;;;4942909;29;19949;-79
2024/02/04 13:07:50;;;;;;;3.45;1.70;;;;;;;;;;4942634;29;20047;-79
2024/02/04 13:10:19;;;;;;;3.85;2.08;;;;;;;;;;4961426;28;20046;-79
2024/02/04 13:12:44;;;;;;;4.32;2.35;;;;;;;;;;4941697;28;20038;-80
2024/02/04 13:15:10;;;;;;;6.13;1.90;;;;;;;;;;4946316;29;20031;-80
2024/02/04 13:17:37;;;;;;;5.15;1.70;;;;;;;;;;4947228;29;20043;-80
2024/02/04 13:20:04;;;;;;;4.70;2.60;;;;;;;;;;4945574;29;20053;-79
2024/02/04 13:22:29;;;;;;;8.93;1.90;;;;;;;;;;4948439;29;20062;-80
2024/02/04 13:24:59;;;;;;;5.25;1.83;;;;;;;;;;4983158;28;20118;-79
2024/02/04 13:27:25;;;;;;;3.75;1.58;;;;;;;;;;4943317;29;20074;-80
2024/02/04 13:29:51;;;;;;;6.32;2.00;;;;;;;;;;4969722;29;20510;-80
2024/02/04 13:32:18;;;;;;;5.00;1.83;;;;;;;;;;4974137;29;20498;-80
2024/02/04 13:34:45;;;;;;;3.65;1.65;;;;;;;;;;4960140;29;20019;-80
2024/02/04 13:37:11;;;;;;;4.35;2.10;;;;;;;;;;4942371;29;20035;-79
2024/02/04 13:39:40;;;;;;;5.18;1.90;;;;;;;;;;4956841;29;20062;-80
2024/02/04 13:42:10;;;;;;;6.68;2.05;;;;;;;;;;4956068;29;20028;-80
2024/02/04 13:44:35;;;;;;;3.85;1.90;;;;;;;;;;4947012;29;20113;-80
2024/02/04 13:47:14;;;;;;;6.03;2.25;;;;;;;;;;4960677;29;20038;-79
2024/02/04 13:49:40;;;;;;;4.32;1.67;;;;;;;;;;4952770;29;20055;-79
2024/02/04 13:52:12;;;;;;;4.35;1.98;;;;;;;;;;4906670;29;20047;-80
2024/02/04 13:54:38;;;;;;;3.50;1.88;;;;;;;;;;4931874;29;20027;-79
2024/02/04 13:57:04;;;;;;;6.57;2.13;;;;;;;;;;4908650;29;20070;-78
2024/02/04 13:59:30;;;;;;;4.70;1.88;;;;;;;;;;4941004;29;20083;-79
2024/02/04 14:01:56;;;;;;;4.30;1.63;;;;;;;;;;4911326;29;20223;-79
2024/02/04 14:04:23;;;;;;;3.25;1.60;;;;;;;;;;4942820;29;20399;-80
2024/02/04 14:06:49;;;;;;;5.70;1.60;;;;;;;;;;4940081;28;20027;-79
2024/02/04 14:09:16;;;;;;;4.75;1.60;;;;;;;;;;4928680;29;20070;-79
2024/02/04 14:11:45;;;;;;;5.10;1.85;;;;;;;;;;4938405;29;20052;-79
2024/02/04 14:14:12;;;;;;;3.80;1.40;;;;;;;;;;4938940;29;20024;-79
2024/02/04 14:16:39;;;;;;;3.05;1.40;;;;;;;;;;4941273;29;20019;-78
2024/02/04 14:19:11;;;;;;;6.75;1.50;;;;;;;;;;4926659;29;20040;-79
2024/02/04 14:21:47;;;;;;;3.60;1.30;;;;;;;;;;4945168;29;20066;-79
2024/02/04 14:24:13;;;;;;;;;;;;;;;;;;4978978;28;20145;-80
2024/02/04 14:26:43;;;;;;;3.88;1.23;;;;;;;;;;4946695;29;19913;-79
2024/02/04 14:29:30;;;;;;;4.28;1.52;;;;;;;;;;4978240;28;20031;-80
2024/02/04 14:32:02;;;;;;;3.70;1.20;;;;;;;;;;4977200;29;20035;-80
2024/02/04 14:34:30;;;;;;;3.85;1.40;;;;;;;;;;4976036;29;20082;-79
2024/02/04 14:36:58;;;;;;;4.68;1.48;;;;;;;;;;4960615;29;20031;-80
2024/02/04 14:39:24;;;;;;;3.03;1.10;;;;;;;;;;4939467;29;20043;-80
2024/02/04 14:41:50;;;;;;;4.10;1.30;;;;;;;;;;4956146;29;20046;-80
2024/02/04 14:44:16;;;;;;;2.75;1.20;;;;;;;;;;4953434;29;20039;-80
2024/02/04 14:46:42;;;;;;;3.53;1.13;;;;;;;;;;4937620;29;20036;-80
2024/02/04 14:49:10;;;;;;;4.25;1.20;;;;;;;;;;4940595;29;20043;-80
2024/02/04 14:51:41;;;;;;;7.30;2.00;;;;;;;;;;4955739;29;20064;-79
2024/02/04 14:54:10;;;;;;;2.67;1.23;;;;;;;;;;4958286;28;20038;-79
2024/02/04 14:56:40;;;;;;;6.05;1.90;;;;;;;;;;4957173;29;20043;-79
2024/02/04 14:59:10;;;;;;;2.53;1.20;;;;;;;;;;4956803;29;20034;-78
2024/02/04 15:01:38;;;;;;;3.95;1.80;;;;;;;;;;4972656;29;20095;-79
2024/02/04 15:04:07;;;;;;;2.83;1.25;;;;;;;;;;4942867;29;20043;-79
2024/02/04 15:06:38;;;;;;;4.45;1.55;;;;;;;;;;4954768;29;20020;-78
2024/02/04 15:09:07;;;;;;;3.97;1.20;;;;;;;;;;4938630;29;20040;-79
2024/02/04 15:11:47;;;;;;;4.75;1.50;;;;;;;;;;4954565;29;20015;-79
2024/02/04 15:14:17;;;;;;;3.47;1.50;;;;;;;;;;4938164;29;20039;-79
2024/02/04 15:16:43;;;;;;;3.90;1.35;;;;;;;;;;4920994;29;20044;-79
2024/02/04 15:19:09;;;;;;;2.50;1.10;;;;;;;;;;4954061;29;20031;-79
2024/02/04 15:21:36;;;;;;;5.35;1.40;;;;;;;;;;4936576;29;20044;-79
2024/02/04 15:24:05;;;;;;;5.40;1.65;;;;;;;;;;4924252;29;20174;-78
2024/02/04 15:26:31;;;;;;;;;;;;;;;;;;4954088;29;20043;-79
2024/02/04 15:29:00;;;;;;;7.25;1.40;;;;;;;;;;4954077;29;19910;-79
2024/02/04 15:31:28;;;;;;;3.38;1.38;;;;;;;;;;4947911;28;20583;-78
2024/02/04 15:33:54;;;;;;;3.30;1.33;;;;;;;;;;4953668;29;20023;-79
2024/02/04 15:36:20;;;;;;;3.17;1.50;;;;;;;;;;4963715;28;20039;-78
2024/02/04 15:38:46;;;;;;;2.55;1.20;;;;;;;;;;4951680;29;20137;-78
2024/02/04 15:41:13;;;;;;;5.75;1.42;;;;;;;;;;4954345;29;20039;-78
2024/02/04 15:43:41;;;;;;;3.85;1.45;;;;;;;;;;4949597;29;20041;-79
2024/02/04 15:46:10;;;;;;;3.95;1.48;;;;;;;;;;4933733;29;20062;-78
2024/02/04 15:48:40;;;;;;;5.25;1.25;;;;;;;;;;4942536;29;20039;-78
2024/02/04 15:51:15;;;;;;;4.32;1.30;;;;;;;;;;4976866;28;20450;-80
2024/02/04 15:53:41;;;;;;;4.07;1.50;;;;;;;;;;4926829;29;20418;-78
2024/02/04 15:56:16;;;;;;;5.07;1.33;;;;;;;;;;4929031;29;20471;-79
2024/02/04 15:58:43;;;;;;;4.15;1.45;;;;;;;;;;4948828;29;20050;-79
2024/02/04 16:01:16;;;;;;;2.35;1.30;;;;;;;;;;4927945;29;20065;-79
2024/02/04 16:03:43;;;;;;;3.67;1.25;;;;;;;;;;4958815;29;20099;-80
2024/02/04 16:06:09;;;;;;;3.10;1.70;;;;;;;;;;4945178;29;20376;-79
2024/02/04 16:08:35;;;;;;;2.85;1.52;;;;;;;;;;4943363;28;20059;-81
2024/02/04 16:11:05;;;;;;;8.77;1.90;;;;;;;;;;4941793;29;20040;-79
2024/02/04 16:13:33;;;;;;;3.97;1.73;;;;;;;;;;4924472;29;20127;-80
2024/02/04 16:16:01;;;;;;;3.88;2.08;;;;;;;;;;4954762;29;20050;-80